createdAt,value
2023-01-10T00:00:45.265Z,92307.47
2023-01-10T00:05:52.127Z,92308.16
2023-01-10T00:10:59.289Z,92315.06
2023-01-10T00:16:10.134Z,92328.99
2023-01-10T00:21:17.146Z,92320.78
2023-01-10T00:26:24.062Z,92340.81
2023-01-10T00:31:30.870Z,92342.14
2023-01-10T00:36:38.412Z,92318.42
2023-01-10T00:42:02.704Z,92331.70
2023-01-10T00:47:09.406Z,92337.11
2023-01-10T00:52:16.291Z,92357.66
2023-01-10T00:57:23.035Z,92348.70
2023-01-10T01:02:30.106Z,92210.38
2023-01-10T01:07:37.096Z,92355.45
2023-01-10T01:12:44.229Z,92377.00
2023-01-10T01:17:50.983Z,92378.38
2023-01-10T01:22:58.137Z,92383.66
2023-01-10T01:28:06.067Z,92390.73
2023-01-10T01:33:13.331Z,92395.75
2023-01-10T01:38:20.992Z,92394.70
2023-01-10T01:43:34.860Z,92410.72
2023-01-10T01:48:42.810Z,92410.41
2023-01-10T01:54:06.171Z,92426.34
2023-01-10T01:59:17.669Z,92431.91
2023-01-10T02:04:49.686Z,92413.42
2023-01-10T02:10:01.349Z,92419.10
2023-01-10T02:15:09.261Z,92411.20
2023-01-10T02:20:20.841Z,92432.11
2023-01-10T02:25:43.872Z,92428.70
2023-01-10T02:31:03.619Z,92428.38
2023-01-10T02:36:29.479Z,92419.55
2023-01-10T02:42:11.783Z,92419.29
2023-01-10T02:47:18.542Z,92414.30
2023-01-10T02:52:29.041Z,92436.17
2023-01-10T02:58:19.354Z,92430.61
2023-01-10T03:09:38.825Z,92430.48
2023-01-10T03:14:47.603Z,92456.50
2023-01-10T03:19:58.217Z,92476.19
2023-01-10T03:25:08.663Z,92449.05
2023-01-10T03:30:28.114Z,92453.36
2023-01-10T03:35:54.292Z,92472.36
2023-01-10T03:41:08.168Z,92463.37
2023-01-10T03:46:22.455Z,92476.91
2023-01-10T03:51:30.425Z,92446.05
2023-01-10T03:56:50.124Z,92478.48
2023-01-10T04:01:58.527Z,92487.33
2023-01-10T04:07:05.427Z,92502.29
2023-01-10T04:12:12.065Z,92506.08
2023-01-10T04:17:20.069Z,92521.69
2023-01-10T04:22:26.985Z,92537.65
2023-01-10T04:27:33.848Z,92534.50
2023-01-10T04:32:40.547Z,92544.84
2023-01-10T04:37:47.347Z,92551.75
2023-01-10T04:42:54.014Z,92565.56
2023-01-10T04:48:00.702Z,92554.70
2023-01-10T04:53:07.387Z,92572.04
2023-01-10T04:58:14.666Z,92590.88
2023-01-10T05:03:21.889Z,92586.14
2023-01-10T05:08:28.567Z,92581.23
2023-01-10T05:13:35.410Z,92616.02
2023-01-10T05:18:42.134Z,92609.12
2023-01-10T05:23:49.264Z,92611.35
2023-01-10T05:28:56.398Z,92630.81
2023-01-10T05:34:03.456Z,92649.72
2023-01-10T05:39:10.291Z,92652.61
2023-01-10T05:44:17.118Z,92654.20
2023-01-10T05:49:23.802Z,92664.61
2023-01-10T05:54:31.248Z,92659.64
2023-01-10T05:59:38.138Z,92653.73
2023-01-10T06:04:45.210Z,92684.05
2023-01-10T06:09:52.013Z,92675.47
2023-01-10T06:14:58.968Z,92685.60
2023-01-10T06:20:06.068Z,92678.36
2023-01-10T06:25:14.768Z,92725.34
2023-01-10T06:30:21.546Z,92725.56
2023-01-10T06:35:28.641Z,92747.91
2023-01-10T06:40:35.464Z,92775.50
2023-01-10T06:45:42.317Z,92751.45
2023-01-10T06:50:49.047Z,92765.70
2023-01-10T06:55:57.791Z,92803.63
2023-01-10T07:01:04.767Z,92794.58
2023-01-10T07:06:12.483Z,92811.56
2023-01-10T07:11:19.227Z,92825.67
2023-01-10T07:16:27.230Z,92840.47
2023-01-10T07:21:34.155Z,92842.60
2023-01-10T07:26:40.894Z,92865.41
2023-01-10T07:31:47.739Z,92855.54
2023-01-10T07:36:54.804Z,92884.97
2023-01-10T07:42:01.620Z,92904.63
2023-01-10T07:47:08.666Z,92911.59
2023-01-10T07:52:15.706Z,92896.98
2023-01-10T07:57:22.352Z,92925.48
2023-01-10T08:02:29.261Z,92939.17
2023-01-10T08:07:36.623Z,92936.07
2023-01-10T08:12:43.231Z,92938.13
2023-01-10T08:17:50.428Z,92964.27
2023-01-10T08:23:01.994Z,92971.49
2023-01-10T08:28:09.192Z,92974.81
2023-01-10T08:33:16.014Z,92979.24
2023-01-10T08:38:22.657Z,92992.81
2023-01-10T08:43:29.779Z,93011.13
2023-01-10T08:48:37.074Z,93015.72
2023-01-10T08:53:44.231Z,93032.99
2023-01-10T08:58:51.285Z,93054.91
2023-01-10T09:03:58.175Z,93048.11
2023-01-10T09:09:05.488Z,93054.70
2023-01-10T09:14:12.131Z,93062.83
2023-01-10T09:19:19.732Z,93095.31
2023-01-10T09:24:26.753Z,93076.95
2023-01-10T09:29:33.559Z,93103.93
2023-01-10T09:34:40.268Z,93099.86
2023-01-10T09:39:46.992Z,93106.91
2023-01-10T09:45:16.244Z,93103.37
2023-01-10T09:50:30.169Z,93124.05
2023-01-10T09:55:37.537Z,93134.43
2023-01-10T10:01:14.995Z,93143.03
2023-01-10T10:06:23.968Z,93140.83
2023-01-10T10:11:53.130Z,93161.86
2023-01-10T10:17:34.411Z,93172.69
2023-01-10T10:23:23.151Z,93169.72
2023-01-10T10:28:59.862Z,93171.48
2023-01-10T10:34:26.847Z,93178.74
2023-01-10T10:39:46.640Z,93200.69
2023-01-10T10:45:00.886Z,93194.70
2023-01-10T10:50:36.650Z,93206.90
2023-01-10T10:55:43.375Z,93203.05
2023-01-10T11:00:50.992Z,93216.78
2023-01-10T11:05:58.571Z,93228.50
2023-01-10T11:11:08.234Z,93230.15
2023-01-10T11:16:30.973Z,93229.16
2023-01-10T11:21:39.540Z,93228.67
2023-01-10T11:26:46.575Z,93240.95
2023-01-10T11:31:56.503Z,93261.81
2023-01-10T11:37:07.871Z,93255.66
2023-01-10T11:42:33.355Z,93261.23
2023-01-10T11:47:45.654Z,93267.07
2023-01-10T11:52:53.445Z,93271.53
2023-01-10T11:58:10.429Z,93273.48
2023-01-10T12:03:30.038Z,93283.05
2023-01-10T12:08:42.023Z,93289.47
2023-01-10T12:13:57.185Z,93290.75
2023-01-10T12:19:09.134Z,93284.58
2023-01-10T12:24:20.414Z,93296.30
2023-01-10T12:29:31.543Z,93308.17
2023-01-10T12:34:48.630Z,93305.67
2023-01-10T12:40:05.519Z,93303.47
2023-01-10T12:45:25.893Z,93309.91
2023-01-10T12:50:53.377Z,93321.78
2023-01-10T12:56:05.312Z,93329.09
2023-01-10T13:01:16.541Z,93329.20
2023-01-10T13:06:30.607Z,93329.82
2023-01-10T13:11:39.402Z,93313.56
2023-01-10T13:16:53.801Z,93327.77
2023-01-10T13:22:23.580Z,93346.81
2023-01-10T13:27:34.130Z,93344.95
2023-01-10T13:32:40.833Z,93354.10
2023-01-10T13:37:57.068Z,93362.66
2023-01-10T13:43:38.308Z,93364.80
2023-01-10T13:48:55.103Z,93373.73
2023-01-10T13:54:05.181Z,93381.01
2023-01-10T13:59:45.709Z,93385.45
2023-01-10T14:05:05.195Z,93386.08
2023-01-10T14:10:33.529Z,93401.52
2023-01-10T14:15:44.103Z,93424.16
2023-01-10T14:21:07.259Z,93434.25
2023-01-10T14:26:36.378Z,93436.09
2023-01-10T14:31:50.838Z,93443.19
2023-01-10T14:37:05.061Z,93457.98
2023-01-10T14:42:15.983Z,93448.20
2023-01-10T14:47:37.789Z,93446.84
2023-01-10T14:52:45.321Z,93449.80
2023-01-10T14:58:04.133Z,93467.15
2023-01-10T15:03:24.674Z,93471.34
2023-01-10T15:08:33.164Z,93473.49
2023-01-10T15:13:58.546Z,93469.91
2023-01-10T15:19:05.145Z,93480.78
2023-01-10T15:24:36.561Z,93486.48
2023-01-10T15:29:45.132Z,93481.55
2023-01-10T15:34:55.645Z,93514.55
2023-01-10T15:40:04.571Z,93531.44
2023-01-10T15:45:31.928Z,93544.05
2023-01-10T15:50:45.165Z,93555.96
2023-01-10T15:55:57.392Z,93563.83
2023-01-10T16:01:05.431Z,93573.12
2023-01-10T16:06:26.188Z,93565.09
2023-01-10T16:12:00.451Z,93572.52
2023-01-10T16:17:07.473Z,93583.09
2023-01-10T16:22:17.762Z,93593.16
2023-01-10T16:27:24.573Z,93612.88
2023-01-10T16:32:31.837Z,93605.27
2023-01-10T16:37:39.219Z,93619.55
2023-01-10T16:43:03.603Z,93608.65
2023-01-10T16:48:10.194Z,93623.95
2023-01-10T16:53:19.569Z,93626.02
2023-01-10T16:58:26.457Z,93623.88
2023-01-10T17:03:38.279Z,93632.36
2023-01-10T17:08:47.181Z,93634.47
2023-01-10T17:13:54.588Z,93646.20
2023-01-10T17:19:01.660Z,93640.02
2023-01-10T17:24:10.897Z,93644.15
2023-01-10T17:29:17.490Z,93651.03
2023-01-10T17:34:24.944Z,93645.49
2023-01-10T17:39:32.179Z,93646.29
2023-01-10T17:44:39.047Z,93523.97
2023-01-10T17:49:45.881Z,93662.77
2023-01-10T17:54:52.672Z,93669.33
2023-01-10T17:59:59.831Z,93662.95
2023-01-10T18:05:07.288Z,93670.37
2023-01-10T18:10:14.174Z,93686.15
2023-01-10T18:15:22.621Z,93682.37
2023-01-10T18:20:29.503Z,93699.86
2023-01-10T18:25:36.489Z,93708.92
2023-01-10T18:30:43.645Z,93710.50
2023-01-10T18:35:50.769Z,93712.05
2023-01-10T18:40:57.635Z,93721.28
2023-01-10T18:46:09.065Z,93713.75
2023-01-10T18:51:16.110Z,93709.75
2023-01-10T18:56:23.064Z,93715.64
2023-01-10T19:01:30.567Z,93723.13
2023-01-10T19:06:37.335Z,93726.58
2023-01-10T19:11:44.896Z,93726.64
2023-01-10T19:16:51.820Z,93733.38
2023-01-10T19:21:58.495Z,93725.30
2023-01-10T19:27:06.246Z,93730.86
2023-01-10T19:32:13.461Z,93728.39
2023-01-10T19:37:20.396Z,93739.30
2023-01-10T19:42:27.069Z,93754.52
2023-01-10T19:47:34.017Z,93760.78
2023-01-10T19:52:40.897Z,93753.95
2023-01-10T19:57:47.709Z,93755.22
2023-01-10T20:02:54.530Z,93754.17
2023-01-10T20:08:02.334Z,93760.72
2023-01-10T20:13:10.353Z,93758.45
2023-01-10T20:18:17.326Z,93744.45
2023-01-10T20:23:24.210Z,93754.27
2023-01-10T20:28:31.265Z,93761.54
2023-01-10T20:33:38.210Z,93749.01
2023-01-10T20:38:45.120Z,93778.66
2023-01-10T20:43:52.977Z,93779.50
2023-01-10T20:49:02.555Z,93772.59
2023-01-10T20:54:10.003Z,93761.84
2023-01-10T20:59:17.416Z,93757.77
2023-01-10T21:04:24.493Z,93759.86
2023-01-10T21:09:32.358Z,93761.85
2023-01-10T21:14:39.060Z,93760.33
2023-01-10T21:19:46.065Z,93764.70
2023-01-10T21:24:53.469Z,93756.31
2023-01-10T21:30:01.497Z,93764.48
2023-01-10T21:35:09.637Z,93764.42
2023-01-10T21:40:16.607Z,93757.91
2023-01-10T21:45:24.472Z,93764.38
2023-01-10T21:50:33.064Z,93763.84
2023-01-10T21:55:39.822Z,93769.21
2023-01-10T22:00:46.719Z,93773.72
2023-01-10T22:05:53.565Z,93771.54
2023-01-10T22:11:00.205Z,93762.46
2023-01-10T22:16:07.458Z,93762.27
2023-01-10T22:21:15.707Z,93765.29
2023-01-10T22:26:23.253Z,93768.01
2023-01-10T22:31:30.326Z,93774.36
2023-01-10T22:36:37.517Z,93766.84
2023-01-10T22:41:44.335Z,93775.45
2023-01-10T22:46:53.752Z,93771.16
2023-01-10T22:52:01.174Z,93771.45
2023-01-10T22:57:07.895Z,93772.96
2023-01-10T23:02:14.897Z,93769.27
2023-01-10T23:07:21.887Z,93769.25
2023-01-10T23:12:29.207Z,93774.48
2023-01-10T23:17:36.286Z,93780.55
2023-01-10T23:22:43.292Z,93779.31
2023-01-10T23:27:50.462Z,93778.59
2023-01-10T23:32:57.483Z,93783.92
2023-01-10T23:38:04.169Z,93780.59
2023-01-10T23:43:11.050Z,93777.55
2023-01-10T23:48:18.472Z,93773.55
2023-01-10T23:53:25.941Z,93772.27
2023-01-10T23:58:32.832Z,93767.73
